Time;durP1;ratioP1;P1;durP2;ratioP2;P2;SDS_P1;SDS_P2;PMS_P1;PMS_P2;Temp;Humidity;BMP_temperature;BMP_pressure;BME280_temperature;BME280_humidity;BME280_pressure;Samples;Min_cycle;Max_cycle;Signal;HPM_P1;HPM_P2
2021/01/29 00:00:42;;;;;;;14.70;8.88;;;4.30;99.90;;;5.23;96.80;99135.19;5035187;28;20092;-81
2021/01/29 00:03:17;;;;;;;17.10;9.43;;;4.30;99.90;;;5.27;96.74;99132.53;5044129;28;20025;-82
2021/01/29 00:05:55;;;;;;;15.27;8.13;;;4.40;99.90;;;5.30;96.21;99123.50;5066572;28;20035;-82
2021/01/29 00:08:24;;;;;;;15.55;7.82;;;4.40;99.90;;;5.32;96.56;99126.72;5035429;28;20327;-81
2021/01/29 00:10:53;;;;;;;18.65;9.35;;;4.40;99.90;;;5.31;96.53;99105.72;5053557;28;20028;-80
2021/01/29 00:13:22;;;;;;;17.13;8.73;;;4.40;99.90;;;5.38;96.42;99113.41;5035681;28;20029;-84
2021/01/29 00:15:48;;;;;;;15.57;9.00;;;4.40;99.90;;;5.43;96.12;99113.91;5039073;28;20606;-83
2021/01/29 00:18:15;;;;;;;16.35;9.02;;;4.50;99.90;;;5.44;96.24;99098.09;5044433;28;20021;-81
2021/01/29 00:20:41;;;;;;;15.82;8.32;;;4.50;99.90;;;5.46;95.94;99104.09;5039507;28;20055;-81
2021/01/29 00:23:08;;;;;;;13.35;8.35;;;4.50;99.90;;;5.43;95.76;99093.72;5053113;28;20025;-80
2021/01/29 00:25:41;;;;;;;13.40;7.85;;;4.50;99.90;;;5.43;96.11;99102.03;5034873;28;20516;-81
2021/01/29 00:28:08;;;;;;;17.55;8.38;;;4.50;99.90;;;5.43;96.32;99094.53;5034932;28;20120;-80
2021/01/29 00:30:35;;;;;;;11.75;7.63;;;4.50;99.90;;;5.44;96.15;99093.38;5050752;23;20135;-81
2021/01/29 00:33:09;;;;;;;17.48;8.52;;;4.40;99.90;;;5.40;96.33;99081.41;5056727;28;20494;-80
2021/01/29 00:35:36;;;;;;;13.40;8.38;;;4.40;99.90;;;5.38;96.41;99080.19;5038219;28;20060;-80
2021/01/29 00:38:06;;;;;;;13.07;8.15;;;4.40;99.90;;;5.36;96.54;99069.47;5057789;28;20029;-82
2021/01/29 00:40:34;;;;;;;16.02;9.00;;;4.40;99.90;;;5.33;96.49;99056.34;5036594;28;20053;-79
2021/01/29 00:43:02;;;;;;;15.73;8.52;;;4.40;99.90;;;5.35;96.43;99054.03;5036299;28;20058;-81
2021/01/29 00:45:32;;;;;;;17.55;8.65;;;4.40;99.90;;;5.40;97.12;99048.19;5035565;28;20033;-81
2021/01/29 00:47:59;;;;;;;12.52;7.80;;;4.40;99.90;;;5.41;96.53;99038.72;5052986;28;20328;-81
2021/01/29 00:50:28;;;;;;;13.93;8.18;;;4.40;99.90;;;5.46;96.87;99043.19;5035122;28;20033;-79
2021/01/29 00:52:54;;;;;;;14.43;8.40;;;4.50;99.90;;;5.41;97.15;99032.38;5034923;28;20036;-80
2021/01/29 00:55:22;;;;;;;13.55;8.82;;;4.40;99.90;;;5.44;97.09;99031.66;5035406;28;20487;-80
2021/01/29 00:57:48;;;;;;;10.23;6.82;;;4.50;99.90;;;5.47;96.98;99025.41;5053025;28;20527;-79
2021/01/29 01:00:16;;;;;;;14.02;8.15;;;4.50;99.90;;;5.46;96.88;99019.03;5034949;28;20445;-80
2021/01/29 01:02:43;;;;;;;14.35;8.23;;;4.50;99.90;;;5.46;96.93;99013.50;5054482;28;20061;-78
2021/01/29 01:05:14;;;;;;;15.15;8.93;;;4.50;99.90;;;5.47;96.87;99006.81;5039138;28;20067;-79
2021/01/29 01:07:40;;;;;;;15.57;8.45;;;4.50;99.90;;;5.45;96.73;98997.28;5057708;28;20050;-80
2021/01/29 01:10:09;;;;;;;14.90;8.10;;;4.50;99.90;;;5.45;97.06;98989.78;5039438;28;20543;-79
2021/01/29 01:12:35;;;;;;;17.27;9.07;;;4.50;99.90;;;5.47;96.87;98978.31;5056955;28;20029;-80
2021/01/29 01:15:13;;;;;;;12.63;8.15;;;4.50;99.90;;;5.49;97.04;98968.47;5038834;28;20025;-79
2021/01/29 01:17:39;;;;;;;15.13;7.85;;;4.50;99.90;;;5.51;97.06;98965.34;5057132;28;20047;-79
2021/01/29 01:20:11;;;;;;;14.93;8.60;;;4.60;99.90;;;5.54;96.83;98953.56;5057436;28;20077;-79
2021/01/29 01:22:37;;;;;;;18.25;10.23;;;4.60;99.90;;;5.60;97.46;98949.31;5039573;28;20172;-80
2021/01/29 01:25:04;;;;;;;24.58;11.73;;;4.60;99.90;;;5.73;97.50;98939.69;5057248;28;20029;-81
2021/01/29 01:27:30;;;;;;;22.92;12.25;;;4.70;99.90;;;5.84;98.98;98941.47;5057429;28;20079;-78
2021/01/29 01:29:57;;;;;;;30.10;12.82;;;4.90;99.90;;;5.99;98.99;98925.16;5063083;28;20059;-79
2021/01/29 01:32:22;;;;;;;34.33;13.75;;;5.10;99.90;;;6.10;99.11;98924.16;5077831;28;20029;-79
2021/01/29 01:34:51;;;;;;;30.92;13.38;;;5.20;99.90;;;6.22;99.24;98923.16;5059412;28;20582;-80
2021/01/29 01:37:17;;;;;;;24.92;11.23;;;5.30;99.90;;;6.29;98.36;98921.28;5060088;28;20033;-79
2021/01/29 01:39:43;;;;;;;17.30;9.77;;;5.30;99.90;;;6.25;98.04;98914.13;5077601;28;20047;-80
2021/01/29 01:42:09;;;;;;;15.88;9.68;;;5.20;99.90;;;6.18;98.13;98914.00;5077488;28;20052;-81
2021/01/29 01:44:42;;;;;;;17.67;8.88;;;5.20;99.90;;;6.14;98.04;98904.81;5058785;28;20031;-81
2021/01/29 01:47:35;;;;;;;27.88;12.45;;;5.20;99.90;;;6.17;98.98;98896.56;5077481;28;20536;-80
2021/01/29 01:50:27;;;;;;;48.97;17.52;;;5.20;99.90;;;6.34;100.00;98884.16;5076685;28;20502;-81
2021/01/29 01:52:55;;;;;;;48.65;17.52;;;5.40;99.90;;;6.53;100.00;98875.72;5077421;28;20036;-80
2021/01/29 01:55:31;;;;;;;55.05;20.95;;;5.60;99.90;;;6.61;100.00;98876.63;5059090;28;20060;-81
2021/01/29 01:57:59;;;;;;;50.20;19.88;;;5.70;99.90;;;6.73;100.00;98870.84;5059075;28;20032;-80
2021/01/29 02:00:31;;;;;;;57.67;19.65;;;5.90;99.90;;;6.74;100.00;98864.91;5077441;28;20032;-81
2021/01/29 02:03:11;;;;;;;58.30;19.30;;;5.90;99.90;;;6.82;100.00;98851.94;5077846;28;20052;-79
2021/01/29 02:05:41;;;;;;;59.95;19.85;;;6.00;99.90;;;6.84;100.00;98858.72;5059481;28;20029;-80
2021/01/29 02:08:16;;;;;;;56.58;20.42;;;6.10;99.90;;;6.93;100.00;98841.00;5059540;28;20119;-79
2021/01/29 02:10:42;;;;;;;49.88;19.17;;;6.10;99.90;;;6.97;100.00;98834.28;5059751;28;20029;-81
2021/01/29 02:13:09;;;;;;;61.20;21.20;;;6.10;99.90;;;6.97;100.00;98825.97;5077265;28;20056;-79
2021/01/29 02:15:49;;;;;;;53.60;20.55;;;6.20;99.90;;;7.08;100.00;98813.03;5076432;28;20060;-80
2021/01/29 02:19:04;;;;;;;62.10;21.80;;;6.30;99.90;;;7.09;100.00;98800.75;5078065;28;20024;-80
2021/01/29 02:22:04;;;;;;;57.28;20.00;;;6.30;99.90;;;7.18;100.00;98801.25;5069134;28;20371;-82
2021/01/29 02:25:23;;;;;;;50.85;20.60;;;6.40;99.90;;;7.25;100.00;98787.44;5020724;28;20224;-82
2021/01/29 02:28:00;;;;;;;61.15;21.70;;;6.40;99.90;;;7.31;100.00;98768.47;5020539;28;20443;-82
2021/01/29 02:31:26;;;;;;;59.92;22.05;;;6.40;99.90;;;7.30;100.00;98764.06;5036685;28;20033;-78
2021/01/29 02:34:23;;;;;;;66.05;23.73;;;6.50;99.90;;;7.29;100.00;98763.28;5037849;28;20121;-80
2021/01/29 02:36:57;;;;;;;66.95;23.08;;;6.50;99.90;;;7.32;100.00;98745.06;5039474;28;20029;-81
2021/01/29 02:39:57;;;;;;;65.78;22.45;;;6.50;99.90;;;7.35;100.00;98736.75;5045474;28;20025;-79
2021/01/29 02:43:02;;;;;;;57.10;20.95;;;6.50;99.90;;;7.34;100.00;98726.03;5024357;28;20042;-81
2021/01/29 02:45:54;;;;;;;54.25;20.48;;;6.60;99.90;;;7.42;100.00;98716.56;5030010;28;20025;-82
2021/01/29 02:48:43;;;;;;;60.75;22.85;;;6.60;99.90;;;7.38;100.00;98705.44;5021088;28;20049;-80
2021/01/29 02:51:24;;;;;;;58.42;21.92;;;6.60;99.90;;;7.37;100.00;98700.28;5023117;28;20044;-81
2021/01/29 02:54:13;;;;;;;56.97;20.80;;;6.60;99.90;;;7.43;100.00;98696.75;5030493;28;20040;-80
2021/01/29 02:56:59;;;;;;;53.28;22.00;;;6.60;99.90;;;7.42;100.00;98680.47;5049186;28;20049;-80
2021/01/29 02:59:43;;;;;;;51.83;20.10;;;6.70;99.90;;;7.46;100.00;98675.75;5049167;28;20030;-80
2021/01/29 03:02:54;;;;;;;47.72;20.02;;;6.80;99.90;;;7.45;100.00;98665.03;5048900;28;20116;-78
2021/01/29 03:05:51;;;;;;;49.08;20.30;;;6.80;99.90;;;7.48;100.00;98659.50;5022504;28;20528;-80
2021/01/29 03:08:28;;;;;;;55.63;19.85;;;6.80;99.90;;;7.57;100.00;98654.41;5019212;28;20052;-80
2021/01/29 03:11:20;;;;;;;52.03;20.42;;;6.80;99.90;;;7.66;100.00;98646.53;5036701;28;20090;-81
2021/01/29 03:14:00;;;;;;;50.13;19.85;;;6.80;99.90;;;7.65;100.00;98642.16;5035639;28;20051;-80
2021/01/29 03:16:44;;;;;;;48.05;20.20;;;6.80;99.90;;;7.71;100.00;98625.91;5060878;28;20053;-80
2021/01/29 03:19:38;;;;;;;51.83;18.02;;;6.80;99.90;;;7.72;100.00;98628.31;5055393;28;20032;-79
2021/01/29 03:22:20;;;;;;;51.78;18.67;;;6.90;99.90;;;7.67;100.00;98620.38;5055661;28;20032;-82
2021/01/29 03:24:55;;;;;;;46.72;18.00;;;6.90;99.90;;;7.70;99.83;98605.69;5037804;28;20091;-81
2021/01/29 03:27:37;;;;;;;44.33;18.65;;;6.90;99.90;;;7.70;100.00;98597.34;5038933;28;20099;-80
2021/01/29 03:30:15;;;;;;;41.58;16.73;;;6.80;99.90;;;7.72;99.90;98589.41;5056464;28;20036;-81
2021/01/29 03:32:48;;;;;;;44.47;18.08;;;6.80;99.90;;;7.73;99.39;98590.22;5056912;28;20025;-80
2021/01/29 03:35:21;;;;;;;43.78;16.83;;;6.80;99.90;;;7.68;99.87;98576.69;5038907;28;20434;-82
2021/01/29 03:38:25;;;;;;;40.05;16.42;;;6.80;99.90;;;7.74;99.79;98578.69;5038728;28;20124;-81
2021/01/29 03:41:29;;;;;;;37.50;16.05;;;6.80;99.90;;;7.67;99.84;98564.00;5038964;28;20431;-80
2021/01/29 03:44:22;;;;;;;37.05;15.00;;;6.90;99.90;;;7.71;99.97;98557.25;5057312;28;20105;-81
2021/01/29 03:47:01;;;;;;;41.17;15.52;;;6.80;99.90;;;7.79;99.15;98558.91;5058164;28;20051;-79
2021/01/29 03:50:06;;;;;;;44.50;14.35;;;6.90;99.90;;;7.80;99.12;98557.69;5062836;28;20033;-81
2021/01/29 03:53:06;;;;;;;43.67;15.00;;;6.80;99.90;;;7.77;99.73;98549.38;5037419;28;20064;-79
2021/01/29 03:55:51;;;;;;;33.78;15.18;;;6.80;99.90;;;7.75;99.75;98546.16;5034815;28;20056;-81
2021/01/29 03:59:17;;;;;;;33.53;14.40;;;6.80;99.90;;;7.72;99.93;98542.19;5038120;28;20444;-80
2021/01/29 04:02:22;;;;;;;34.85;13.43;;;6.80;99.90;;;7.78;99.98;98525.94;4975889;28;20659;-81
2021/01/29 04:05:07;;;;;;;29.25;12.88;;;6.90;99.90;;;7.76;99.91;98519.97;4976311;28;20034;-80
2021/01/29 04:07:50;;;;;;;31.65;12.27;;;6.90;99.90;;;7.74;100.00;98514.78;5037528;28;20441;-81
2021/01/29 04:10:25;;;;;;;30.13;11.68;;;6.90;99.90;;;7.80;100.00;98502.13;5018948;28;20037;-82
2021/01/29 04:13:03;;;;;;;24.38;10.48;;;6.90;99.90;;;7.77;100.00;98496.56;5025119;28;20228;-79
2021/01/29 04:15:45;;;;;;;23.05;11.45;;;6.90;99.90;;;7.76;100.00;98483.84;5046343;28;20026;-80
2021/01/29 04:18:26;;;;;;;25.98;10.82;;;6.90;99.90;;;7.71;100.00;98475.88;5027141;28;20033;-80
2021/01/29 04:21:13;;;;;;;27.88;10.18;;;7.00;99.90;;;7.88;100.00;98466.81;5018535;28;20026;-80
2021/01/29 04:23:58;;;;;;;24.65;9.23;;;7.10;99.90;;;7.83;100.00;98456.88;5036647;28;20032;-81
2021/01/29 04:26:33;;;;;;;20.58;8.85;;;7.10;99.90;;;7.83;100.00;98454.09;5035697;28;20034;-79
2021/01/29 04:29:13;;;;;;;17.90;8.63;;;7.10;99.90;;;7.82;100.00;98444.19;5034047;28;20029;-80
2021/01/29 04:31:42;;;;;;;20.63;8.00;;;7.10;99.90;;;7.87;100.00;98434.66;5018061;28;20276;-78
2021/01/29 04:34:27;;;;;;;13.63;7.05;;;7.10;99.90;;;7.84;100.00;98443.78;5031849;28;20024;-79
2021/01/29 04:37:02;;;;;;;11.13;6.15;;;7.10;99.90;;;7.92;100.00;98428.72;5026415;28;20029;-81
2021/01/29 04:39:39;;;;;;;14.27;6.00;;;7.20;99.90;;;7.99;100.00;98423.19;5065326;28;20020;-80
2021/01/29 04:42:48;;;;;;;14.77;6.65;;;7.20;99.90;;;8.03;100.00;98409.28;5053693;28;20039;-80
2021/01/29 04:45:33;;;;;;;11.30;5.80;;;7.20;99.90;;;8.09;99.95;98405.69;5060040;28;20033;-80
2021/01/29 04:48:50;;;;;;;13.15;5.50;;;7.30;99.90;;;8.04;100.00;98383.06;5058871;28;20563;-81
2021/01/29 04:51:40;;;;;;;10.45;4.65;;;7.30;99.90;;;8.07;100.00;98387.81;5067427;28;20033;-80
2021/01/29 04:54:42;;;;;;;8.15;4.07;;;7.30;99.90;;;8.11;100.00;98378.31;5041414;28;20033;-81
2021/01/29 04:58:02;;;;;;;6.85;3.22;;;7.30;99.90;;;8.09;100.00;98368.78;5041784;28;20032;-82
2021/01/29 05:01:10;;;;;;;7.30;3.35;;;7.40;99.90;;;8.17;100.00;98362.81;5007900;28;20036;-81
2021/01/29 05:04:44;;;;;;;8.65;4.78;;;7.40;99.90;;;8.25;99.82;98358.84;5049836;28;20497;-79
2021/01/29 05:08:06;;;;;;;7.13;3.72;;;7.30;99.90;;;8.13;100.00;98350.91;5003512;28;20044;-82
2021/01/29 05:11:28;;;;;;;5.38;3.00;;;7.40;99.90;;;8.27;100.00;98350.09;5040931;28;20035;-79
2021/01/29 05:14:54;;;;;;;7.20;3.17;;;7.40;99.90;;;8.19;100.00;98340.97;5042583;28;20040;-81
2021/01/29 05:17:49;;;;;;;6.13;3.15;;;7.40;99.90;;;8.20;100.00;98323.09;4988824;28;20047;-82
2021/01/29 05:20:30;;;;;;;9.57;3.47;;;7.40;99.90;;;8.22;100.00;98323.47;5061811;28;20021;-81
2021/01/29 05:23:53;;;;;;;6.85;3.47;;;7.50;99.90;;;8.31;100.00;98318.38;5058787;28;20055;-82
2021/01/29 05:27:08;;;;;;;5.22;3.10;;;7.50;99.90;;;8.32;100.00;98314.38;5040334;28;20029;-82
2021/01/29 05:30:30;;;;;;;7.47;3.25;;;7.50;99.90;;;8.37;100.00;98313.19;5040101;28;20374;-80
2021/01/29 05:33:50;;;;;;;4.00;2.45;;;7.50;99.90;;;8.48;99.43;98305.59;5076682;28;20032;-81
2021/01/29 05:36:47;;;;;;;4.30;2.35;;;7.50;99.90;;;8.45;99.21;98301.63;5029911;28;20036;-85
2021/01/29 05:39:50;;;;;;;6.38;2.70;;;7.50;99.90;;;8.44;99.12;98299.28;5079485;28;20020;-83
2021/01/29 05:42:56;;;;;;;4.95;2.70;;;7.40;99.90;;;8.36;99.12;98295.69;5051921;28;20473;-85
2021/01/29 05:45:50;;;;;;;6.18;2.90;;;7.40;99.90;;;8.30;99.32;98291.75;5059175;28;20028;-83
2021/01/29 05:48:42;;;;;;;7.03;3.03;;;7.30;99.90;;;8.28;99.53;98294.09;5040383;28;20124;-84
2021/01/29 05:52:23;;;;;;;4.80;2.83;;;7.30;99.90;;;8.29;99.84;98275.44;5039680;28;20075;-82
2021/01/29 05:55:30;;;;;;;5.50;2.70;;;7.30;99.90;;;8.22;100.00;98279.00;5040474;28;20025;-83
2021/01/29 05:58:39;;;;;;;6.45;3.25;;;7.30;99.90;;;8.18;100.00;98267.09;5041379;28;20033;-83
2021/01/29 06:01:48;;;;;;;7.97;3.20;;;7.30;99.90;;;8.18;100.00;98260.75;5060861;28;20032;-85
2021/01/29 06:04:46;;;;;;;8.18;3.28;;;7.30;99.90;;;8.22;100.00;98259.53;5040426;28;20033;-83
2021/01/29 06:08:02;;;;;;;8.20;3.15;;;7.30;99.90;;;8.27;100.00;98255.56;5057509;28;20077;-83
2021/01/29 06:10:59;;;;;;;11.52;3.90;;;7.40;99.90;;;8.27;100.00;98255.56;5039655;28;20052;-84
2021/01/29 06:13:44;;;;;;;;;;;7.40;99.90;;;8.32;100.00;98246.84;5039839;28;20337;-85
2021/01/29 06:16:47;;;;;;;5.95;2.85;;;7.40;99.90;;;8.37;100.00;98240.88;5057844;28;19913;-84
2021/01/29 06:19:32;;;;;;;4.15;2.15;;;7.50;99.90;;;8.40;100.00;98242.84;5039246;28;20587;-85
2021/01/29 06:23:13;;;;;;;4.55;2.42;;;7.50;99.90;;;8.46;100.00;98241.25;5057210;28;20029;-82
2021/01/29 06:26:38;;;;;;;8.15;2.90;;;7.50;99.90;;;8.49;100.00;98226.53;5057556;28;20092;-83
2021/01/29 06:29:54;;;;;;;5.07;2.97;;;7.40;99.90;;;8.41;100.00;98230.53;5040316;28;20025;-83
2021/01/29 06:32:56;;;;;;;8.52;3.58;;;7.40;99.90;;;8.35;100.00;98229.34;5060700;28;20041;-82
2021/01/29 06:36:06;;;;;;;9.75;3.50;;;7.40;99.90;;;8.27;100.00;98223.00;5046699;28;20025;-82
2021/01/29 06:39:05;;;;;;;9.60;3.47;;;7.30;99.90;;;8.26;100.00;98232.53;5064630;28;20488;-84
2021/01/29 06:42:21;;;;;;;7.63;3.30;;;7.30;99.90;;;8.24;100.00;98231.34;5047103;28;20094;-84
2021/01/29 06:45:44;;;;;;;7.22;3.38;;;7.40;99.90;;;8.35;100.00;98227.34;5049045;28;20024;-86
2021/01/29 06:49:06;;;;;;;5.35;2.92;;;7.40;99.90;;;8.42;100.00;98232.91;4972013;28;20035;-85
2021/01/29 06:52:11;;;;;;;6.32;3.53;;;7.40;99.90;;;8.43;100.00;98228.94;5069219;28;20035;-86
2021/01/29 06:55:12;;;;;;;6.72;3.53;;;7.40;99.90;;;8.45;100.00;98234.09;5048260;28;20043;-85
2021/01/29 06:58:44;;;;;;;8.48;4.10;;;7.40;99.90;;;8.56;100.00;98242.41;5062352;28;20467;-84
2021/01/29 07:01:39;;;;;;;9.77;5.30;;;7.50;99.90;;;8.48;100.00;98250.75;5062783;28;20025;-83
2021/01/29 07:04:37;;;;;;;10.45;5.18;;;7.50;99.90;;;8.34;100.00;98247.25;5044636;28;20025;-84
2021/01/29 07:07:43;;;;;;;9.57;4.85;;;7.40;99.90;;;8.28;100.00;98246.84;5061863;28;20033;-82
2021/01/29 07:11:19;;;;;;;7.82;4.78;;;7.40;99.90;;;8.41;100.00;98242.44;5063222;28;20033;-86
2021/01/29 07:14:21;;;;;;;8.02;4.88;;;7.50;99.90;;;8.39;100.00;98241.25;5046195;28;20469;-85
2021/01/29 07:17:28;;;;;;;8.88;4.65;;;7.60;99.90;;;8.52;100.00;98249.97;5052511;28;20047;-84
2021/01/29 07:20:26;;;;;;;8.10;4.63;;;7.60;99.90;;;8.53;100.00;98243.22;5027558;28;20171;-82
2021/01/29 07:23:12;;;;;;;9.15;4.57;;;7.60;99.90;;;8.65;100.00;98263.03;5058309;28;20104;-82
2021/01/29 07:26:29;;;;;;;6.97;5.78;;;7.70;99.90;;;8.65;100.00;98263.03;5038601;28;20131;-83
2021/01/29 07:29:38;;;;;;;8.15;5.20;;;7.90;99.90;;;8.79;100.00;98257.44;5040720;28;20597;-83
2021/01/29 07:32:29;;;;;;;8.95;7.10;;;8.00;99.90;;;8.86;100.00;98264.97;5040897;28;20055;-82
2021/01/29 07:35:10;;;;;;;10.65;6.22;;;8.10;99.90;;;8.90;100.00;98260.94;5039789;28;20024;-81
2021/01/29 07:38:45;;;;;;;12.55;7.70;;;8.10;99.90;;;9.03;99.96;98264.06;5040682;28;20039;-83
2021/01/29 07:42:00;;;;;;;12.60;8.07;;;8.20;99.90;;;9.12;99.58;98275.53;5024914;28;20045;-84
2021/01/29 07:45:18;;;;;;;11.77;7.90;;;8.30;99.90;;;9.17;99.22;98268.78;5039399;28;20052;-81
2021/01/29 07:48:40;;;;;;;11.65;8.25;;;8.20;99.90;;;9.11;99.37;98279.56;5039341;28;20020;-83
2021/01/29 07:52:02;;;;;;;11.82;7.60;;;8.30;99.90;;;9.02;99.64;98296.69;5040787;28;20140;-82
2021/01/29 07:55:02;;;;;;;9.18;6.47;;;8.30;99.90;;;9.11;98.22;98284.31;5025778;28;20084;-83
2021/01/29 07:58:29;;;;;;;7.95;5.32;;;8.40;99.90;;;9.22;97.02;98291.41;5058690;28;20087;-82
2021/01/29 08:01:47;;;;;;;8.73;6.07;;;8.40;99.90;;;9.35;96.54;98295.31;5059036;28;20029;-83
2021/01/29 08:04:28;;;;;;;;;;;8.40;99.90;;;9.22;97.29;98290.63;5058126;28;20025;-81
2021/01/29 08:07:23;;;;;;;8.75;7.10;;;8.40;99.90;;;9.20;97.65;98309.72;5058765;28;19932;-85
2021/01/29 08:10:06;;;;;;;9.60;6.93;;;8.30;99.90;;;9.10;98.59;98294.66;5040390;28;20441;-83
2021/01/29 08:12:54;;;;;;;10.48;7.88;;;8.30;99.90;;;9.21;98.20;98302.97;5039124;28;20036;-82
2021/01/29 08:15:52;;;;;;;12.52;8.32;;;8.30;99.90;;;9.13;98.59;98291.06;5040535;28;20028;-83
2021/01/29 08:18:48;;;;;;;11.85;9.40;;;8.40;99.90;;;9.23;98.69;98306.94;5040741;28;20107;-86
2021/01/29 08:21:48;;;;;;;11.68;9.40;;;8.40;99.90;;;9.22;98.58;98310.09;5057678;28;20047;-83
2021/01/29 08:25:12;;;;;;;12.95;9.80;;;8.40;99.90;;;9.16;99.04;98320.09;5040185;28;20033;-81
2021/01/29 08:28:37;;;;;;;11.13;7.93;;;8.40;99.90;;;9.27;98.24;98307.72;5043486;28;20544;-81
2021/01/29 08:32:00;;;;;;;13.13;8.05;;;8.50;99.90;;;9.35;97.81;98320.41;5018390;28;20052;-82
2021/01/29 08:35:10;;;;;;;18.35;8.98;;;8.50;99.90;;;9.38;97.87;98308.44;5016228;28;20052;-81
2021/01/29 08:38:04;;;;;;;12.80;8.60;;;8.50;99.90;;;9.30;97.87;98311.69;5049610;28;20031;-84
2021/01/29 08:41:03;;;;;;;12.27;8.00;;;8.50;99.90;;;9.32;97.88;98310.06;5046714;28;20036;-82
2021/01/29 08:44:08;;;;;;;13.40;8.95;;;8.50;99.90;;;9.46;98.09;98309.19;5059396;28;20425;-84
2021/01/29 08:47:26;;;;;;;13.45;8.55;;;8.50;99.90;;;9.30;98.25;98308.88;5048430;28;20031;-81
2021/01/29 08:50:01;;;;;;;12.00;8.98;;;8.50;99.90;;;9.39;97.82;98321.19;5035309;28;20056;-81
2021/01/29 08:53:06;;;;;;;13.10;8.00;;;8.60;99.90;;;9.41;97.92;98312.41;5037530;28;20060;-82
2021/01/29 08:56:22;;;;;;;11.50;7.28;;;8.60;99.90;;;9.25;98.92;98312.88;5076969;28;20039;-82
2021/01/29 08:59:18;;;;;;;11.63;7.55;;;8.60;99.90;;;9.20;99.65;98310.53;5057731;28;20021;-82
2021/01/29 09:02:31;;;;;;;13.52;8.43;;;8.60;99.90;;;9.34;98.99;98312.47;5054132;28;20187;-82
2021/01/29 09:05:27;;;;;;;7.88;5.57;;;8.60;99.90;;;9.36;98.93;98312.84;4990643;28;20033;-84
2021/01/29 09:08:06;;;;;;;9.48;6.10;;;8.60;99.90;;;9.23;99.92;98314.50;5063522;28;20044;-84
2021/01/29 09:11:22;;;;;;;10.73;5.80;;;8.60;99.90;;;9.35;99.38;98325.16;5052892;28;20029;-84
2021/01/29 09:14:02;;;;;;;11.77;5.82;;;8.60;99.90;;;9.33;99.41;98322.00;5054544;28;20048;-84
2021/01/29 09:16:40;;;;;;;11.65;5.65;;;8.70;99.90;;;9.37;99.47;98331.13;5041320;28;20035;-83
2021/01/29 09:19:18;;;;;;;10.88;6.38;;;8.70;99.90;;;9.51;98.73;98348.56;5067427;28;20013;-84
2021/01/29 09:22:14;;;;;;;11.45;5.93;;;8.70;99.90;;;9.27;99.68;98334.78;5069341;28;20029;-84
2021/01/29 09:25:23;;;;;;;18.77;7.00;;;8.80;99.90;;;9.39;99.12;98339.88;5057157;28;20032;-85
2021/01/29 09:28:16;;;;;;;21.25;6.80;;;8.70;99.90;;;9.45;98.48;98339.03;5066381;28;20389;-82
2021/01/29 09:31:04;;;;;;;13.77;6.70;;;8.80;99.90;;;9.42;99.05;98344.63;5060191;28;20047;-79
2021/01/29 09:33:49;;;;;;;17.63;7.53;;;8.80;99.90;;;9.44;98.57;98345.00;5079760;28;20396;-81
2021/01/29 09:36:50;;;;;;;18.92;8.55;;;8.80;99.90;;;9.44;97.84;98354.16;5046009;28;20060;-82
2021/01/29 09:39:38;;;;;;;15.93;6.60;;;8.80;99.90;;;9.51;97.50;98367.25;5042500;28;20128;-84
2021/01/29 09:42:14;;;;;;;21.55;7.25;;;8.80;99.90;;;9.58;96.02;98380.38;5040833;28;20033;-84
2021/01/29 09:44:48;;;;;;;;;;;8.90;99.90;;;9.64;95.93;98382.31;5048627;28;20476;-83
2021/01/29 09:47:23;;;;;;;13.45;5.82;;;8.90;99.90;;;9.51;96.38;98393.13;5061271;28;19909;-84
2021/01/29 09:50:00;;;;;;;20.75;5.20;;;8.80;99.90;;;9.40;96.08;98386.03;5048174;28;20020;-84
2021/01/29 09:52:57;;;;;;;19.00;4.88;;;8.90;99.90;;;9.50;96.19;98401.91;5065923;28;20025;-82
2021/01/29 09:55:38;;;;;;;16.58;5.55;;;8.80;99.90;;;9.46;95.97;98415.88;5040694;28;20029;-83
2021/01/29 09:59:08;;;;;;;12.43;4.47;;;8.80;99.90;;;9.38;96.32;98413.50;5040346;28;20034;-82
2021/01/29 10:01:45;;;;;;;19.73;5.00;;;8.70;99.90;;;9.39;96.65;98415.09;4980443;28;20041;-82
2021/01/29 10:05:05;;;;;;;13.90;4.85;;;8.70;99.90;;;9.39;96.58;98417.88;5022040;28;20028;-84
2021/01/29 10:07:40;;;;;;;19.27;5.93;;;8.70;99.90;;;9.40;96.25;98425.03;5021625;28;20030;-83
2021/01/29 10:10:36;;;;;;;16.25;4.88;;;8.70;99.90;;;9.35;96.95;98431.03;5063600;28;20086;-83
2021/01/29 10:13:37;;;;;;;16.02;5.20;;;8.70;99.90;;;9.37;96.47;98440.59;5065721;28;20033;-82
2021/01/29 10:16:32;;;;;;;25.55;6.50;;;8.70;99.90;;;9.42;96.42;98453.28;5052894;28;20139;-83
2021/01/29 10:19:27;;;;;;;14.00;5.13;;;8.70;99.90;;;9.43;96.86;98452.91;5059086;28;20087;-83
2021/01/29 10:21:59;;;;;;;16.27;5.53;;;8.70;99.90;;;9.35;97.52;98451.31;5022641;28;20495;-83
2021/01/29 10:25:13;;;;;;;29.90;5.90;;;8.70;99.90;;;9.45;96.91;98458.84;5038459;28;20508;-81
2021/01/29 10:28:07;;;;;;;20.80;5.70;;;8.70;99.90;;;9.35;97.44;98462.47;5037833;28;20049;-83
2021/01/29 10:30:45;;;;;;;19.23;6.60;;;8.70;99.90;;;9.32;97.06;98474.41;5037510;28;20531;-83
2021/01/29 10:33:28;;;;;;;17.50;6.45;;;8.60;99.90;;;9.32;96.63;98468.03;5037304;28;20044;-81
2021/01/29 10:36:31;;;;;;;17.60;6.28;;;8.70;99.90;;;9.22;97.11;98454.94;5037268;28;20027;-83
2021/01/29 10:39:18;;;;;;;24.92;8.35;;;8.60;99.90;;;9.37;96.39;98464.84;5013734;28;20057;-84
2021/01/29 10:42:15;;;;;;;21.45;7.45;;;8.70;99.90;;;9.34;96.61;98471.22;5037032;28;20572;-84
2021/01/29 10:44:45;;;;;;;17.25;6.53;;;8.60;99.90;;;9.32;96.57;98471.63;5037294;28;20414;-83
2021/01/29 10:47:30;;;;;;;19.30;7.15;;;8.60;99.90;;;9.40;96.70;98486.34;5039833;28;20056;-82
2021/01/29 10:50:27;;;;;;;22.35;7.78;;;8.60;99.90;;;9.34;96.67;98482.38;5040915;28;20037;-84
2021/01/29 10:53:20;;;;;;;21.63;8.35;;;8.60;99.90;;;9.15;97.30;98486.38;5037081;28;20382;-83
2021/01/29 10:56:13;;;;;;;21.73;8.80;;;8.50;99.90;;;9.25;97.29;98487.53;5038151;28;20064;-84
2021/01/29 10:59:23;;;;;;;24.88;8.90;;;8.50;99.90;;;9.21;98.05;98493.16;5038451;28;20025;-85
2021/01/29 11:02:05;;;;;;;36.67;11.05;;;8.50;99.90;;;9.20;97.32;98507.47;5040298;28;20025;-86
2021/01/29 11:04:46;;;;;;;31.98;10.70;;;8.40;99.90;;;9.24;97.55;98499.91;5024096;28;20505;-84
2021/01/29 11:07:26;;;;;;;23.08;9.75;;;8.50;99.90;;;9.35;96.45;98504.25;5040050;28;20052;-82
2021/01/29 11:10:21;;;;;;;29.67;10.50;;;8.50;99.90;;;9.29;96.42;98510.63;5040499;28;20521;-83
2021/01/29 11:13:10;;;;;;;30.25;9.80;;;8.50;99.90;;;9.23;96.36;98521.38;5038483;28;20029;-86
2021/01/29 11:16:01;;;;;;;35.90;10.05;;;8.60;99.90;;;9.49;95.53;98515.34;5039771;28;20029;-83
2021/01/29 11:18:37;;;;;;;35.03;9.52;;;8.70;99.90;;;9.44;95.96;98517.75;5042749;28;20022;-84
2021/01/29 11:21:28;;;;;;;32.33;9.20;;;8.70;99.90;;;9.51;95.85;98520.50;5078953;28;20087;-86
2021/01/29 11:24:39;;;;;;;27.90;8.65;;;8.70;99.90;;;9.63;94.95;98517.31;5064790;28;20028;-81
2021/01/29 11:27:50;;;;;;;30.77;8.18;;;8.80;99.90;;;9.54;95.52;98519.72;5083610;28;20032;-84
2021/01/29 11:30:35;;;;;;;33.33;8.75;;;8.80;99.90;;;9.62;94.33;98514.91;5063053;28;20037;-84
2021/01/29 11:33:08;;;;;;;23.13;6.75;;;8.80;99.90;;;9.78;93.99;98520.84;5078465;28;20119;-82
2021/01/29 11:36:09;;;;;;;29.10;8.30;;;9.00;99.90;;;10.15;92.99;98520.28;5059716;28;20028;-82
2021/01/29 11:39:31;;;;;;;37.03;7.47;;;9.20;99.90;;;10.09;92.21;98522.69;5077575;28;20029;-83
2021/01/29 11:42:36;;;;;;;32.28;8.25;;;9.30;99.90;;;10.36;91.71;98511.81;5061089;28;20028;-83
2021/01/29 11:45:19;;;;;;;31.20;7.68;;;9.40;99.90;;;10.18;90.62;98514.69;5063679;28;20032;-81
2021/01/29 11:48:26;;;;;;;27.48;7.50;;;9.40;99.90;;;10.11;90.71;98525.88;5076687;28;20025;-83
2021/01/29 11:51:29;;;;;;;27.25;7.35;;;9.30;99.90;;;10.00;91.17;98527.91;5076214;28;20020;-82
2021/01/29 11:54:31;;;;;;;25.20;7.03;;;9.20;99.90;;;9.85;90.60;98523.59;5038369;28;20143;-83
2021/01/29 11:57:15;;;;;;;31.52;8.23;;;9.20;99.90;;;10.04;89.11;98531.47;5079968;28;20113;-84
2021/01/29 11:59:54;;;;;;;30.75;7.38;;;9.20;99.90;;;10.11;88.61;98536.22;5079367;28;20514;-85
2021/01/29 12:02:39;;;;;;;21.90;6.70;;;9.20;99.90;;;10.00;89.30;98537.06;5078388;28;20032;-83
2021/01/29 12:05:36;;;;;;;32.30;7.10;;;9.20;99.90;;;9.91;89.87;98535.91;5079554;28;20031;-83